createdAt,value
2023-03-02T00:01:34.346Z,69.76
2023-03-02T00:04:02.953Z,69.78
2023-03-02T00:06:31.774Z,70.03
2023-03-02T00:09:00.740Z,70.00
2023-03-02T00:11:30.576Z,70.28
2023-03-02T00:13:57.624Z,70.32
2023-03-02T00:16:24.670Z,70.00
2023-03-02T00:18:51.467Z,70.04
2023-03-02T00:21:18.217Z,70.84
2023-03-02T00:23:45.043Z,70.19
2023-03-02T00:26:11.750Z,70.30
2023-03-02T00:28:38.357Z,70.28
2023-03-02T00:31:06.514Z,70.40
2023-03-02T00:33:34.727Z,70.57
2023-03-02T00:36:01.885Z,70.52
2023-03-02T00:38:29.276Z,70.20
2023-03-02T00:40:56.460Z,70.17
2023-03-02T00:43:27.451Z,70.66
2023-03-02T00:45:57.255Z,70.23
2023-03-02T00:48:23.894Z,70.57
2023-03-02T00:50:50.791Z,70.73
2023-03-02T00:53:18.165Z,70.90
2023-03-02T00:55:55.868Z,70.88
2023-03-02T00:58:22.616Z,71.05
2023-03-02T01:00:49.573Z,71.50
2023-03-02T01:03:16.288Z,71.84
2023-03-02T01:05:43.136Z,72.05
2023-03-02T01:08:09.959Z,72.15
2023-03-02T01:10:37.573Z,72.48
2023-03-02T01:13:05.557Z,72.89
2023-03-02T01:15:33.853Z,72.28
2023-03-02T01:18:01.036Z,72.41
2023-03-02T01:20:28.279Z,72.10
2023-03-02T01:22:55.537Z,72.00
2023-03-02T01:25:22.204Z,72.51
2023-03-02T01:27:48.926Z,71.71
2023-03-02T01:30:16.551Z,71.67
2023-03-02T01:32:43.202Z,71.12
2023-03-02T01:35:10.310Z,71.16
2023-03-02T01:37:37.065Z,71.14
2023-03-02T01:40:06.501Z,71.44
2023-03-02T01:42:45.745Z,70.95
2023-03-02T01:45:30.888Z,71.33
2023-03-02T01:47:57.646Z,70.78
2023-03-02T01:50:27.329Z,71.10
2023-03-02T01:52:55.435Z,70.75
2023-03-02T01:55:25.405Z,70.66
2023-03-02T01:57:54.629Z,70.29
2023-03-02T02:00:25.019Z,69.90
2023-03-02T02:02:53.224Z,69.20
2023-03-02T02:05:24.213Z,69.47
2023-03-02T02:07:51.206Z,69.23
2023-03-02T02:10:18.232Z,69.56
2023-03-02T02:12:44.830Z,69.43
2023-03-02T02:15:11.534Z,69.69
2023-03-02T02:17:38.244Z,69.25
2023-03-02T02:20:19.556Z,69.70
2023-03-02T02:22:59.201Z,69.94
2023-03-02T02:25:31.786Z,69.98
2023-03-02T02:27:58.517Z,69.87
2023-03-02T02:30:25.867Z,70.11
2023-03-02T02:32:55.475Z,70.24
2023-03-02T02:35:27.342Z,70.48
2023-03-02T02:38:02.979Z,70.67
2023-03-02T02:40:48.161Z,70.65
2023-03-02T02:43:17.875Z,70.68
2023-03-02T02:45:46.573Z,71.22
2023-03-02T02:48:19.490Z,70.88
2023-03-02T02:50:46.888Z,71.01
2023-03-02T02:53:19.431Z,71.10
2023-03-02T02:55:49.476Z,71.04
2023-03-02T02:58:25.531Z,70.89
2023-03-02T03:00:53.965Z,70.98
2023-03-02T03:03:39.358Z,70.92
2023-03-02T03:06:09.437Z,70.49
2023-03-02T03:08:45.644Z,70.44
2023-03-02T03:11:23.394Z,70.22
2023-03-02T03:14:02.065Z,69.72
2023-03-02T03:16:31.410Z,69.88
2023-03-02T03:19:20.139Z,70.16
2023-03-02T03:21:50.650Z,70.01
2023-03-02T03:24:17.823Z,70.16
2023-03-02T03:26:45.219Z,69.86
2023-03-02T03:29:13.464Z,70.00
2023-03-02T03:31:40.594Z,70.17
2023-03-02T03:34:08.002Z,69.91
2023-03-02T03:36:35.814Z,70.13
2023-03-02T03:39:05.627Z,70.17
2023-03-02T03:41:33.196Z,69.59
2023-03-02T03:44:00.073Z,69.53
2023-03-02T03:46:27.386Z,69.75
2023-03-02T03:48:54.123Z,69.94
2023-03-02T03:51:20.812Z,70.22
2023-03-02T03:53:59.642Z,69.84
2023-03-02T03:56:28.316Z,69.67
2023-03-02T03:59:06.196Z,69.63
2023-03-02T04:01:41.928Z,69.19
2023-03-02T04:04:15.912Z,69.63
2023-03-02T04:06:43.451Z,69.13
2023-03-02T04:09:12.351Z,68.99
2023-03-02T04:11:40.958Z,69.20
2023-03-02T04:14:08.981Z,69.02
2023-03-02T04:16:36.894Z,69.17
2023-03-02T04:19:09.556Z,69.21
2023-03-02T04:21:41.545Z,68.92
2023-03-02T04:24:09.960Z,69.29
2023-03-02T04:26:38.282Z,69.73
2023-03-02T04:29:05.529Z,69.67
2023-03-02T04:31:32.916Z,69.63
2023-03-02T04:34:00.410Z,69.59
2023-03-02T04:36:27.524Z,69.78
2023-03-02T04:38:54.514Z,69.97
2023-03-02T04:41:21.912Z,69.54
2023-03-02T04:43:48.909Z,69.55
2023-03-02T04:46:22.206Z,70.00
2023-03-02T04:48:48.903Z,70.09
2023-03-02T04:51:35.552Z,70.10
2023-03-02T04:54:05.547Z,70.34
2023-03-02T04:56:32.838Z,70.26
2023-03-02T04:58:59.655Z,70.65
2023-03-02T05:01:26.858Z,71.37
2023-03-02T05:03:53.893Z,71.10
2023-03-02T05:06:21.915Z,71.14
2023-03-02T05:08:48.685Z,71.06
2023-03-02T05:11:22.040Z,71.31
2023-03-02T05:13:54.575Z,71.20
2023-03-02T05:16:21.826Z,71.40
2023-03-02T05:18:48.532Z,71.58
2023-03-02T05:21:15.952Z,71.71
2023-03-02T05:23:43.022Z,72.25
2023-03-02T05:26:10.175Z,72.38
2023-03-02T05:28:36.853Z,72.49
2023-03-02T05:31:03.814Z,72.72
2023-03-02T05:33:31.028Z,72.52
2023-03-02T05:35:57.974Z,72.75
2023-03-02T05:38:25.136Z,72.55
2023-03-02T05:40:51.731Z,73.18
2023-03-02T05:43:20.978Z,72.89
2023-03-02T05:45:47.652Z,72.91
2023-03-02T05:48:14.542Z,73.10
2023-03-02T05:50:41.837Z,72.75
2023-03-02T05:53:08.944Z,73.13
2023-03-02T05:55:38.288Z,73.17
2023-03-02T05:58:09.246Z,73.82
2023-03-02T06:00:36.077Z,73.27
2023-03-02T06:03:02.895Z,73.30
2023-03-02T06:05:29.559Z,73.49
2023-03-02T06:07:56.649Z,73.71
2023-03-02T06:10:23.618Z,73.78
2023-03-02T06:12:50.582Z,73.67
2023-03-02T06:15:17.284Z,73.98
2023-03-02T06:17:44.269Z,73.64
2023-03-02T06:20:11.900Z,73.78
2023-03-02T06:22:41.366Z,73.99
2023-03-02T06:25:14.106Z,74.28
2023-03-02T06:27:41.846Z,73.98
2023-03-02T06:30:10.809Z,73.70
2023-03-02T06:32:37.530Z,73.68
2023-03-02T06:35:06.150Z,74.27
2023-03-02T06:37:33.021Z,73.39
2023-03-02T06:39:59.891Z,73.26
2023-03-02T06:42:27.966Z,73.42
2023-03-02T06:44:55.175Z,73.87
2023-03-02T06:47:23.295Z,73.46
2023-03-02T06:49:49.963Z,72.90
2023-03-02T06:52:16.911Z,73.17
2023-03-02T06:54:43.670Z,73.15
2023-03-02T06:57:10.530Z,73.04
2023-03-02T06:59:37.116Z,73.03
2023-03-02T07:02:03.986Z,73.20
2023-03-02T07:04:30.576Z,73.19
2023-03-02T07:06:57.238Z,72.70
2023-03-02T07:09:24.244Z,73.70
2023-03-02T07:11:50.953Z,72.69
2023-03-02T07:14:17.589Z,73.51
2023-03-02T07:16:44.327Z,71.84
2023-03-02T07:19:14.133Z,71.17
2023-03-02T07:21:41.428Z,70.74
2023-03-02T07:24:08.264Z,70.11
2023-03-02T07:26:35.037Z,70.03
2023-03-02T07:29:01.895Z,70.43
2023-03-02T07:31:29.156Z,69.71
2023-03-02T07:33:55.810Z,67.83
2023-03-02T07:36:22.367Z,66.26
2023-03-02T07:38:49.033Z,66.21
2023-03-02T07:41:17.005Z,66.08
2023-03-02T07:43:43.910Z,65.55
2023-03-02T07:46:10.821Z,65.37
2023-03-02T07:48:37.545Z,65.02
2023-03-02T07:51:05.903Z,64.30
2023-03-02T07:53:33.041Z,63.59
2023-03-02T07:56:01.427Z,64.74
2023-03-02T07:58:28.322Z,63.96
2023-03-02T08:00:54.924Z,64.28
2023-03-02T08:03:21.640Z,62.83
2023-03-02T08:05:48.249Z,63.34
2023-03-02T08:08:14.917Z,62.93
2023-03-02T08:10:41.535Z,62.85
2023-03-02T08:13:08.174Z,62.54
2023-03-02T08:15:34.816Z,62.52
2023-03-02T08:18:01.458Z,62.32
2023-03-02T08:20:28.272Z,62.52
2023-03-02T08:22:55.108Z,62.69
2023-03-02T08:25:21.834Z,62.96
2023-03-02T08:27:48.691Z,62.81
2023-03-02T08:30:15.610Z,62.79
2023-03-02T08:32:42.436Z,61.68
2023-03-02T08:35:09.588Z,62.30
2023-03-02T08:37:36.334Z,61.68
2023-03-02T08:40:03.857Z,61.33
2023-03-02T08:42:30.476Z,61.58
2023-03-02T08:44:57.107Z,61.50
2023-03-02T08:47:23.717Z,60.87
2023-03-02T08:49:51.280Z,60.60
2023-03-02T08:52:17.921Z,61.10
2023-03-02T08:54:44.618Z,59.40
2023-03-02T08:57:11.837Z,59.92
2023-03-02T08:59:38.515Z,59.35
2023-03-02T09:02:05.383Z,59.11
2023-03-02T09:04:32.276Z,59.87
2023-03-02T09:06:58.940Z,58.52
2023-03-02T09:09:25.591Z,58.64
2023-03-02T09:11:52.291Z,58.26
2023-03-02T09:14:18.908Z,57.57
2023-03-02T09:16:46.253Z,57.82
2023-03-02T09:19:13.894Z,57.86
2023-03-02T09:21:40.513Z,57.64
2023-03-02T09:24:07.301Z,57.70
2023-03-02T09:26:34.213Z,56.87
2023-03-02T09:29:00.912Z,57.46
2023-03-02T09:31:30.126Z,56.77
2023-03-02T09:33:57.176Z,58.16
2023-03-02T09:36:25.629Z,56.62
2023-03-02T09:38:52.883Z,56.07
2023-03-02T09:41:19.614Z,55.97
2023-03-02T09:44:02.014Z,56.78
2023-03-02T09:46:49.745Z,55.33
2023-03-02T09:49:38.199Z,55.20
2023-03-02T09:52:28.309Z,54.29
2023-03-02T09:54:56.280Z,54.63
2023-03-02T09:57:27.161Z,53.76
2023-03-02T10:00:18.321Z,54.30
2023-03-02T10:02:58.777Z,54.30
2023-03-02T10:05:41.920Z,54.54
2023-03-02T10:08:13.264Z,54.21
2023-03-02T10:10:39.867Z,52.81
2023-03-02T10:13:28.256Z,52.41
2023-03-02T10:15:58.006Z,52.58
2023-03-02T10:18:35.957Z,51.93
2023-03-02T10:21:24.267Z,51.12
2023-03-02T10:23:57.385Z,49.92
2023-03-02T10:26:46.787Z,49.65
2023-03-02T10:29:32.099Z,49.23
2023-03-02T10:32:13.491Z,49.15
2023-03-02T10:34:40.113Z,49.37
2023-03-02T10:37:15.432Z,49.32
2023-03-02T10:39:42.168Z,48.80
2023-03-02T10:42:17.076Z,47.88
2023-03-02T10:44:51.090Z,47.27
2023-03-02T10:47:35.564Z,46.58
2023-03-02T10:50:02.194Z,46.78
2023-03-02T10:52:29.465Z,46.92
2023-03-02T10:55:14.331Z,46.39
2023-03-02T10:57:43.954Z,46.30
2023-03-02T11:00:25.225Z,47.73
2023-03-02T11:03:20.316Z,47.87
2023-03-02T11:05:47.814Z,47.08
2023-03-02T11:08:23.457Z,46.57
2023-03-02T11:10:56.900Z,45.64
2023-03-02T11:13:31.180Z,46.51
2023-03-02T11:16:26.234Z,46.87
2023-03-02T11:18:59.144Z,46.01
2023-03-02T11:21:41.128Z,43.71
2023-03-02T11:24:15.311Z,44.06
2023-03-02T11:26:53.738Z,44.98
2023-03-02T11:29:35.758Z,44.72
2023-03-02T11:32:08.342Z,45.15
2023-03-02T11:34:42.465Z,45.70
2023-03-02T11:37:23.125Z,44.57
2023-03-02T11:39:56.229Z,44.48
2023-03-02T11:42:44.251Z,44.23
2023-03-02T11:45:13.794Z,45.71
2023-03-02T11:47:57.573Z,44.68
2023-03-02T11:50:31.590Z,45.23
2023-03-02T11:52:59.583Z,44.59
2023-03-02T11:55:35.765Z,45.70
2023-03-02T11:58:04.789Z,44.68
2023-03-02T12:00:39.785Z,44.62
2023-03-02T12:03:15.349Z,43.31
2023-03-02T12:05:46.961Z,42.17
2023-03-02T12:08:19.346Z,42.35
2023-03-02T12:11:26.188Z,41.77
2023-03-02T12:13:52.746Z,41.65
2023-03-02T12:16:41.058Z,40.98
2023-03-02T12:19:25.999Z,39.70
2023-03-02T12:22:02.248Z,39.99
2023-03-02T12:24:32.568Z,40.79
2023-03-02T12:27:16.601Z,40.57
2023-03-02T12:29:46.104Z,38.73
2023-03-02T12:32:21.853Z,39.00
2023-03-02T12:34:59.862Z,39.07
2023-03-02T12:37:31.917Z,38.22
2023-03-02T12:40:10.595Z,38.12
2023-03-02T12:43:01.396Z,39.65
2023-03-02T12:45:36.678Z,38.47
2023-03-02T12:48:15.639Z,36.47
2023-03-02T12:50:42.950Z,37.22
2023-03-02T12:53:19.405Z,35.69
2023-03-02T12:55:47.037Z,35.19
2023-03-02T12:58:20.881Z,35.03
2023-03-02T13:00:57.114Z,36.08
2023-03-02T13:03:26.370Z,35.03
2023-03-02T13:06:04.185Z,33.82
2023-03-02T13:08:32.047Z,35.48
2023-03-02T13:11:01.652Z,35.64
2023-03-02T13:13:43.062Z,32.31
2023-03-02T13:16:23.266Z,31.66
2023-03-02T13:18:53.907Z,32.85
2023-03-02T13:21:22.127Z,32.48
2023-03-02T13:23:51.900Z,30.91
2023-03-02T13:26:29.141Z,31.12
2023-03-02T13:29:14.769Z,31.34
2023-03-02T13:31:41.453Z,31.04
2023-03-02T13:34:24.575Z,31.16
2023-03-02T13:36:52.072Z,31.51
2023-03-02T13:39:28.271Z,30.72
2023-03-02T13:41:59.012Z,30.69
2023-03-02T13:44:33.950Z,30.37
2023-03-02T13:47:01.790Z,30.26
2023-03-02T13:49:31.365Z,29.43
2023-03-02T13:52:20.095Z,30.96
2023-03-02T13:54:48.015Z,30.34
2023-03-02T13:57:25.200Z,30.03
2023-03-02T13:59:51.894Z,32.57
2023-03-02T14:02:25.454Z,30.32
2023-03-02T14:04:52.926Z,31.92
2023-03-02T14:07:20.964Z,32.15
2023-03-02T14:09:48.640Z,32.24
2023-03-02T14:12:27.370Z,33.43
2023-03-02T14:14:57.438Z,31.79
2023-03-02T14:17:26.148Z,32.43
2023-03-02T14:19:54.949Z,32.61
2023-03-02T14:22:25.219Z,32.40
2023-03-02T14:24:51.931Z,33.98
2023-03-02T14:27:19.390Z,32.99
2023-03-02T14:29:46.924Z,33.10
2023-03-02T14:32:15.390Z,33.80
2023-03-02T14:34:43.381Z,34.23
2023-03-02T14:37:15.138Z,35.41
2023-03-02T14:39:45.740Z,35.89
2023-03-02T14:42:15.390Z,36.28
2023-03-02T14:44:43.602Z,36.18
2023-03-02T14:47:10.620Z,37.08
2023-03-02T14:49:38.162Z,36.27
2023-03-02T14:52:28.076Z,36.79
2023-03-02T14:54:57.941Z,37.04
2023-03-02T14:57:27.673Z,37.36
2023-03-02T14:59:56.251Z,38.87
2023-03-02T15:02:26.744Z,38.80
2023-03-02T15:04:57.065Z,38.61
2023-03-02T15:07:28.300Z,38.44
2023-03-02T15:09:57.369Z,39.17
2023-03-02T15:12:24.540Z,39.54
2023-03-02T15:14:51.711Z,40.33
2023-03-02T15:17:18.430Z,40.33
2023-03-02T15:19:45.110Z,41.07
2023-03-02T15:22:13.198Z,41.32
2023-03-02T15:24:39.937Z,42.05
2023-03-02T15:27:06.609Z,42.60
2023-03-02T15:29:33.725Z,43.61
2023-03-02T15:32:00.479Z,44.02
2023-03-02T15:34:27.180Z,44.56
2023-03-02T15:36:53.807Z,45.21
2023-03-02T15:39:20.514Z,45.32
2023-03-02T15:41:47.152Z,45.88
2023-03-02T15:44:23.011Z,45.98
2023-03-02T15:46:51.785Z,45.71
2023-03-02T15:49:22.876Z,46.62
2023-03-02T15:51:51.995Z,46.36
2023-03-02T15:54:18.899Z,46.21
2023-03-02T15:56:45.542Z,47.00
2023-03-02T15:59:12.166Z,47.19
2023-03-02T16:01:38.885Z,47.45
2023-03-02T16:04:05.628Z,47.95
2023-03-02T16:06:32.282Z,48.20
2023-03-02T16:08:58.901Z,48.70
2023-03-02T16:11:25.646Z,49.23
2023-03-02T16:13:52.865Z,49.16
2023-03-02T16:16:21.147Z,49.22
2023-03-02T16:18:51.886Z,49.62
2023-03-02T16:21:18.911Z,49.77
2023-03-02T16:23:45.752Z,50.32
2023-03-02T16:26:16.740Z,50.73
2023-03-02T16:28:43.456Z,51.32
2023-03-02T16:31:17.654Z,51.63
2023-03-02T16:33:45.393Z,51.80
2023-03-02T16:36:13.046Z,52.39
2023-03-02T16:38:40.472Z,52.58
2023-03-02T16:41:16.352Z,52.86
2023-03-02T16:43:49.224Z,53.25
2023-03-02T16:46:17.066Z,53.47
2023-03-02T16:48:46.380Z,54.33
2023-03-02T16:51:13.455Z,54.61
2023-03-02T16:53:43.345Z,54.75
2023-03-02T16:56:11.982Z,55.43
2023-03-02T16:58:40.137Z,55.41
2023-03-02T17:01:09.022Z,55.26
2023-03-02T17:03:36.026Z,55.80
2023-03-02T17:06:03.053Z,57.11
2023-03-02T17:08:50.850Z,58.17
2023-03-02T17:11:17.980Z,58.78
2023-03-02T17:13:44.709Z,58.94
2023-03-02T17:16:11.990Z,60.01
2023-03-02T17:18:38.905Z,59.71
2023-03-02T17:21:05.900Z,60.67
2023-03-02T17:23:33.192Z,61.42
2023-03-02T17:26:00.337Z,61.79
2023-03-02T17:28:27.063Z,62.88
2023-03-02T17:30:53.763Z,62.68
2023-03-02T17:33:20.561Z,63.32
2023-03-02T17:35:47.545Z,62.99
2023-03-02T17:38:15.355Z,63.59
2023-03-02T17:40:43.122Z,63.68
2023-03-02T17:43:10.282Z,64.42
2023-03-02T17:45:36.926Z,64.50
2023-03-02T17:48:03.700Z,64.94
2023-03-02T17:50:33.765Z,64.68
2023-03-02T17:53:00.785Z,65.30
2023-03-02T17:55:27.754Z,65.14
2023-03-02T17:57:54.446Z,65.48
2023-03-02T18:00:23.226Z,65.63
2023-03-02T18:02:51.030Z,64.40
2023-03-02T18:05:18.196Z,64.27
2023-03-02T18:07:45.217Z,64.36
2023-03-02T18:10:12.567Z,63.74
2023-03-02T18:12:39.457Z,65.39
2023-03-02T18:15:06.789Z,66.83
2023-03-02T18:17:33.448Z,66.86
2023-03-02T18:20:00.144Z,65.34
2023-03-02T18:22:26.873Z,65.12
2023-03-02T18:24:53.590Z,65.32
2023-03-02T18:27:20.634Z,66.88
2023-03-02T18:29:47.363Z,67.18
2023-03-02T18:32:14.421Z,67.29
2023-03-02T18:34:41.441Z,67.86
2023-03-02T18:37:08.566Z,68.86
2023-03-02T18:39:37.688Z,69.56
2023-03-02T18:42:05.371Z,70.89
2023-03-02T18:44:32.577Z,71.89
2023-03-02T18:47:00.742Z,72.74
2023-03-02T18:49:28.022Z,72.02
2023-03-02T18:51:56.591Z,72.68
2023-03-02T18:54:24.561Z,73.10
2023-03-02T18:56:51.544Z,72.54
2023-03-02T18:59:18.432Z,72.61
2023-03-02T19:01:46.300Z,73.36
2023-03-02T19:04:14.340Z,73.46
2023-03-02T19:06:42.323Z,74.18
2023-03-02T19:09:09.556Z,75.35
2023-03-02T19:11:36.456Z,75.55
2023-03-02T19:14:03.454Z,75.97
2023-03-02T19:16:30.132Z,76.17
2023-03-02T19:18:56.902Z,76.94
2023-03-02T19:21:23.604Z,76.42
2023-03-02T19:23:50.235Z,77.59
2023-03-02T19:26:16.916Z,77.01
2023-03-02T19:28:43.639Z,76.28
2023-03-02T19:31:11.520Z,77.56
2023-03-02T19:33:40.063Z,77.16
2023-03-02T19:36:07.501Z,77.94
2023-03-02T19:38:37.842Z,78.28
2023-03-02T19:41:04.931Z,78.76
2023-03-02T19:43:33.016Z,79.81
2023-03-02T19:46:00.859Z,81.09
2023-03-02T19:48:29.724Z,81.31
2023-03-02T19:50:56.641Z,81.27
2023-03-02T19:53:23.368Z,82.12
2023-03-02T19:55:51.518Z,82.32
2023-03-02T19:58:19.812Z,82.05
2023-03-02T20:00:47.003Z,82.38
2023-03-02T20:03:13.837Z,82.35
2023-03-02T20:05:40.590Z,81.87
2023-03-02T20:08:07.822Z,83.50
2023-03-02T20:10:34.704Z,85.25
2023-03-02T20:13:01.702Z,85.49
2023-03-02T20:15:31.072Z,86.26
2023-03-02T20:17:59.402Z,86.67
2023-03-02T20:20:27.040Z,86.61
2023-03-02T20:22:53.770Z,86.34
2023-03-02T20:25:21.460Z,86.66
2023-03-02T20:27:49.356Z,86.49
2023-03-02T20:30:22.948Z,87.69
2023-03-02T20:32:50.041Z,88.08
2023-03-02T20:35:16.920Z,87.21
2023-03-02T20:37:43.615Z,87.19
2023-03-02T20:40:31.130Z,87.16
2023-03-02T20:42:58.382Z,88.85
2023-03-02T20:45:25.792Z,88.73
2023-03-02T20:47:52.638Z,89.05
2023-03-02T20:50:26.095Z,88.82
2023-03-02T20:52:53.005Z,89.71
2023-03-02T20:55:19.930Z,89.24
2023-03-02T20:57:48.654Z,90.34
2023-03-02T21:00:20.846Z,89.66
2023-03-02T21:02:48.459Z,90.51
2023-03-02T21:05:17.461Z,90.67
2023-03-02T21:07:45.516Z,90.61
2023-03-02T21:10:16.184Z,91.27
2023-03-02T21:12:43.052Z,91.05
2023-03-02T21:15:10.619Z,90.88
2023-03-02T21:17:37.619Z,91.45
2023-03-02T21:20:05.965Z,91.76
2023-03-02T21:22:33.195Z,91.64
2023-03-02T21:25:00.045Z,91.82
2023-03-02T21:27:26.677Z,91.88
2023-03-02T21:29:53.355Z,91.50
2023-03-02T21:32:20.053Z,93.08
2023-03-02T21:34:46.773Z,92.59
2023-03-02T21:37:13.391Z,93.09
2023-03-02T21:39:40.027Z,93.02
2023-03-02T21:42:07.003Z,92.93
2023-03-02T21:44:33.636Z,93.47
2023-03-02T21:47:00.234Z,93.93
2023-03-02T21:49:27.054Z,93.74
2023-03-02T21:51:53.672Z,94.41
2023-03-02T21:54:20.400Z,94.53
2023-03-02T21:56:47.092Z,95.09
2023-03-02T21:59:13.805Z,94.99
2023-03-02T22:01:40.798Z,95.23
2023-03-02T22:04:07.415Z,95.87
2023-03-02T22:06:37.620Z,95.37
2023-03-02T22:09:04.845Z,96.00
2023-03-02T22:11:35.940Z,96.76
2023-03-02T22:14:14.478Z,96.58
2023-03-02T22:16:43.262Z,98.06
2023-03-02T22:19:32.782Z,98.70
2023-03-02T22:22:01.053Z,100.00
2023-03-02T22:24:30.385Z,99.56
2023-03-02T22:27:22.247Z,100.00
2023-03-02T22:29:53.116Z,100.00
2023-03-02T22:32:26.390Z,100.00
2023-03-02T22:35:02.726Z,100.00
2023-03-02T22:37:33.651Z,100.00
2023-03-02T22:40:27.742Z,100.00
2023-03-02T22:43:08.630Z,100.00
2023-03-02T22:45:35.612Z,100.00
2023-03-02T22:48:02.343Z,100.00
2023-03-02T22:50:30.825Z,100.00
2023-03-02T22:53:00.123Z,100.00
2023-03-02T22:55:40.406Z,100.00
2023-03-02T22:58:25.515Z,100.00
2023-03-02T23:00:52.500Z,100.00
2023-03-02T23:03:22.043Z,100.00
2023-03-02T23:05:51.759Z,100.00
2023-03-02T23:08:26.633Z,100.00
2023-03-02T23:10:57.872Z,100.00
2023-03-02T23:13:30.324Z,100.00
2023-03-02T23:15:57.530Z,100.00
2023-03-02T23:18:27.319Z,100.00
2023-03-02T23:20:54.360Z,100.00
2023-03-02T23:23:23.183Z,100.00
2023-03-02T23:25:50.614Z,100.00
2023-03-02T23:28:17.267Z,100.00
2023-03-02T23:30:44.077Z,100.00
2023-03-02T23:33:10.806Z,100.00
2023-03-02T23:35:37.472Z,100.00
2023-03-02T23:38:04.143Z,100.00
2023-03-02T23:40:30.848Z,100.00
2023-03-02T23:42:57.455Z,100.00
2023-03-02T23:45:24.175Z,100.00
2023-03-02T23:47:50.770Z,100.00
2023-03-02T23:50:17.688Z,100.00
2023-03-02T23:52:44.348Z,100.00
2023-03-02T23:55:11.390Z,100.00
2023-03-02T23:57:38.003Z,100.00
